createdAt,value
2023-02-16T00:00:53.566Z,99.35
2023-02-16T00:02:34.069Z,99.45
2023-02-16T00:04:14.499Z,99.55
2023-02-16T00:05:54.908Z,99.67
2023-02-16T00:07:35.312Z,99.68
2023-02-16T00:09:15.799Z,99.62
2023-02-16T00:10:56.264Z,99.63
2023-02-16T00:12:36.721Z,99.6
2023-02-16T00:15:57.677Z,99.52
2023-02-16T00:17:38.072Z,99.53
2023-02-16T00:19:18.559Z,99.48
2023-02-16T00:20:58.970Z,99.32
2023-02-16T00:22:39.418Z,99.29
2023-02-16T00:24:19.816Z,99.25
2023-02-16T00:26:00.254Z,99.2
2023-02-16T00:27:40.784Z,99.08
2023-02-16T00:29:21.227Z,98.97
2023-02-16T00:31:02.158Z,98.95
2023-02-16T00:32:42.206Z,98.88
2023-02-16T00:34:22.647Z,98.75
2023-02-16T00:36:03.110Z,98.74
2023-02-16T00:37:43.599Z,98.85
2023-02-16T00:39:24.089Z,98.99
2023-02-16T00:41:04.699Z,99.04
2023-02-16T00:42:44.957Z,99.11
2023-02-16T00:44:25.363Z,99.08
2023-02-16T00:46:05.882Z,99.09
2023-02-16T00:47:46.229Z,99
2023-02-16T00:49:26.718Z,99.1
2023-02-16T00:51:23.859Z,99.13
2023-02-16T00:52:47.764Z,99.11
2023-02-16T00:54:29.386Z,98.98
2023-02-16T00:56:08.518Z,99.02
2023-02-16T00:57:48.973Z,98.94
2023-02-16T00:59:29.482Z,99.09
2023-02-16T01:01:10.012Z,99.14
2023-02-16T01:02:50.470Z,99.22
2023-02-16T01:04:31.119Z,99.26
2023-02-16T01:06:11.522Z,99.35
2023-02-16T01:07:51.994Z,99.45
2023-02-16T01:09:32.387Z,99.35
2023-02-16T01:11:12.920Z,99.29
2023-02-16T01:12:53.339Z,99.47
2023-02-16T01:14:33.863Z,99.5
2023-02-16T01:16:14.385Z,99.5
2023-02-16T01:17:54.731Z,99.58
2023-02-16T01:19:35.223Z,99.7
2023-02-16T01:21:15.552Z,99.77
2023-02-16T01:22:56.056Z,99.67
2023-02-16T01:24:36.603Z,99.68
2023-02-16T01:26:17.127Z,99.79
2023-02-16T01:27:57.710Z,99.89
2023-02-16T01:29:38.037Z,99.93
2023-02-16T01:31:18.598Z,99.97
2023-02-16T01:32:59.012Z,99.98
2023-02-16T01:34:39.460Z,99.92
2023-02-16T01:36:19.906Z,99.82
2023-02-16T01:38:00.259Z,99.72
2023-02-16T01:39:40.688Z,99.68
2023-02-16T01:41:21.204Z,99.47
2023-02-16T01:43:01.637Z,99.35
2023-02-16T01:44:42.080Z,99.19
2023-02-16T01:46:22.575Z,99.01
2023-02-16T01:48:02.955Z,98.89
2023-02-16T01:49:43.425Z,98.7
2023-02-16T01:51:23.928Z,98.62
2023-02-16T01:53:04.319Z,98.48
2023-02-16T01:54:44.816Z,98.32
2023-02-16T01:56:25.267Z,98.17
2023-02-16T01:58:05.718Z,98.12
2023-02-16T01:59:46.208Z,98.04
2023-02-16T02:01:26.732Z,97.99
2023-02-16T02:03:07.274Z,97.93
2023-02-16T02:04:47.625Z,97.8
2023-02-16T02:06:28.154Z,97.66
2023-02-16T02:08:08.464Z,97.58
2023-02-16T02:09:48.805Z,97.55
2023-02-16T02:11:29.174Z,97.46
2023-02-16T02:13:09.631Z,97.35
2023-02-16T02:14:50.122Z,97.24
2023-02-16T02:16:30.611Z,97.18
2023-02-16T02:18:11.039Z,97.19
2023-02-16T02:19:51.503Z,97.16
2023-02-16T02:21:31.989Z,97.17
2023-02-16T02:23:12.448Z,97.13
2023-02-16T02:24:52.864Z,97.04
2023-02-16T02:26:33.324Z,96.96
2023-02-16T02:28:13.869Z,96.82
2023-02-16T02:29:54.393Z,96.77
2023-02-16T02:31:34.980Z,96.73
2023-02-16T02:33:15.309Z,96.72
2023-02-16T02:34:55.670Z,96.67
2023-02-16T02:38:16.358Z,96.72
2023-02-16T02:39:56.707Z,96.68
2023-02-16T02:41:37.163Z,96.67
2023-02-16T02:43:17.617Z,96.62
2023-02-16T02:44:58.100Z,96.58
2023-02-16T02:46:38.651Z,96.54
2023-02-16T02:48:18.999Z,96.51
2023-02-16T02:49:59.497Z,96.48
2023-02-16T02:51:39.871Z,96.47
2023-02-16T02:53:20.364Z,96.44
2023-02-16T02:55:00.859Z,96.47
2023-02-16T02:56:41.335Z,96.53
2023-02-16T02:58:21.779Z,96.55
2023-02-16T03:00:02.201Z,96.6
2023-02-16T03:03:23.212Z,96.62
2023-02-16T03:05:03.575Z,96.59
2023-02-16T03:06:43.972Z,96.68
2023-02-16T03:08:24.409Z,96.64
2023-02-16T03:10:04.909Z,96.6
2023-02-16T03:11:47.975Z,96.59
2023-02-16T03:13:25.882Z,96.62
2023-02-16T03:15:06.830Z,96.66
2023-02-16T03:16:46.852Z,96.67
2023-02-16T03:18:27.235Z,96.75
2023-02-16T03:20:07.676Z,96.73
2023-02-16T03:21:48.123Z,96.78
2023-02-16T03:23:28.618Z,96.8
2023-02-16T03:25:09.030Z,96.84
2023-02-16T03:26:49.560Z,96.87
2023-02-16T03:28:30.003Z,96.92
2023-02-16T03:30:10.577Z,96.93
2023-02-16T03:31:50.971Z,96.97
2023-02-16T03:33:31.328Z,96.97
2023-02-16T03:35:12.622Z,97
2023-02-16T03:36:52.204Z,97.02
2023-02-16T03:38:32.779Z,97.04
2023-02-16T03:40:13.185Z,97.04
2023-02-16T03:41:53.660Z,97.05
2023-02-16T03:43:34.109Z,97.04
2023-02-16T03:45:14.561Z,97.07
2023-02-16T03:46:55.044Z,97.12
2023-02-16T03:48:35.574Z,97.11
2023-02-16T03:50:16.012Z,97.11
2023-02-16T03:51:56.369Z,97.17
2023-02-16T03:53:36.875Z,97.12
2023-02-16T03:55:17.371Z,97.11
2023-02-16T03:56:57.822Z,97.1
2023-02-16T03:58:38.272Z,97.16
2023-02-16T04:00:18.646Z,97.13
2023-02-16T04:01:59.206Z,97.12
2023-02-16T04:03:39.704Z,97.11
2023-02-16T04:05:20.113Z,97.14
2023-02-16T04:07:00.616Z,97.09
2023-02-16T04:08:41.025Z,97.12
2023-02-16T04:10:21.613Z,97.14
2023-02-16T04:12:02.044Z,97.18
2023-02-16T04:13:42.527Z,97.15
2023-02-16T04:15:23.102Z,97.13
2023-02-16T04:17:03.560Z,97.16
2023-02-16T04:18:44.048Z,97.18
2023-02-16T04:20:24.514Z,97.23
2023-02-16T04:22:05.003Z,97.22
2023-02-16T04:23:45.462Z,97.23
2023-02-16T04:25:25.988Z,97.16
2023-02-16T04:27:06.439Z,97.06
2023-02-16T04:28:46.880Z,96.99
2023-02-16T04:30:27.430Z,97
2023-02-16T04:32:08.053Z,97.03
2023-02-16T04:33:48.463Z,97.06
2023-02-16T04:35:28.916Z,97.01
2023-02-16T04:37:09.300Z,96.97
2023-02-16T04:38:49.808Z,96.96
2023-02-16T04:40:30.251Z,96.89
2023-02-16T04:42:10.738Z,96.86
2023-02-16T04:43:51.179Z,96.75
2023-02-16T04:45:31.770Z,96.65
2023-02-16T04:47:12.236Z,96.62
2023-02-16T04:48:52.692Z,96.64
2023-02-16T04:50:33.176Z,96.72
2023-02-16T04:52:13.667Z,96.75
2023-02-16T04:53:54.020Z,96.82
2023-02-16T04:55:34.404Z,96.89
2023-02-16T04:57:14.919Z,96.9
2023-02-16T04:58:55.342Z,96.91
2023-02-16T05:00:36.673Z,96.95
2023-02-16T05:02:16.290Z,96.91
2023-02-16T05:03:56.823Z,96.9
2023-02-16T05:05:37.308Z,96.92
2023-02-16T05:07:17.788Z,96.94
2023-02-16T05:08:58.297Z,96.9
2023-02-16T05:10:38.896Z,96.95
2023-02-16T05:12:19.299Z,96.98
2023-02-16T05:13:59.720Z,97.02
2023-02-16T05:15:40.251Z,97.03
2023-02-16T05:17:20.768Z,97.04
2023-02-16T05:19:01.197Z,97.08
2023-02-16T05:20:41.646Z,97.09
2023-02-16T05:22:22.116Z,97.13
2023-02-16T05:24:02.579Z,97.15
2023-02-16T05:25:43.029Z,97.26
2023-02-16T05:27:23.553Z,97.28
2023-02-16T05:29:04.065Z,97.27
2023-02-16T05:30:44.508Z,97.28
2023-02-16T05:32:25.008Z,97.24
2023-02-16T05:34:05.439Z,97.17
2023-02-16T05:35:45.901Z,97.17
2023-02-16T05:37:26.394Z,97.12
2023-02-16T05:39:06.822Z,97.18
2023-02-16T05:40:47.271Z,97.22
2023-02-16T05:42:27.735Z,97.18
2023-02-16T05:44:08.198Z,97.22
2023-02-16T05:45:48.695Z,97.18
2023-02-16T05:47:28.995Z,97.19
2023-02-16T05:49:09.364Z,97.13
2023-02-16T05:50:49.706Z,97.06
2023-02-16T05:52:30.119Z,97.08
2023-02-16T05:54:10.490Z,97.13
2023-02-16T05:55:50.945Z,97.08
2023-02-16T05:57:31.518Z,96.95
2023-02-16T05:59:11.938Z,96.88
2023-02-16T06:00:52.389Z,96.75
2023-02-16T06:02:32.908Z,96.64
2023-02-16T06:04:13.348Z,96.59
2023-02-16T06:05:53.815Z,96.62
2023-02-16T06:07:34.230Z,96.69
2023-02-16T06:09:14.722Z,96.78
2023-02-16T06:10:55.197Z,96.94
2023-02-16T06:12:35.702Z,97
2023-02-16T06:14:16.173Z,97.1
2023-02-16T06:15:56.884Z,97.09
2023-02-16T06:17:37.195Z,97.13
2023-02-16T06:19:17.576Z,97.13
2023-02-16T06:20:58.015Z,97.12
2023-02-16T06:22:38.501Z,97.13
2023-02-16T06:24:18.964Z,97.13
2023-02-16T06:25:59.429Z,97.12
2023-02-16T06:27:39.921Z,97.12
2023-02-16T06:29:20.448Z,97.12
2023-02-16T06:31:00.971Z,97.13
2023-02-16T06:32:41.430Z,97.07
2023-02-16T06:34:21.930Z,97.03
2023-02-16T06:36:02.489Z,96.97
2023-02-16T06:37:42.945Z,96.94
2023-02-16T06:39:23.442Z,96.9
2023-02-16T06:41:04.305Z,96.81
2023-02-16T06:42:44.431Z,96.75
2023-02-16T06:44:24.878Z,96.7
2023-02-16T06:46:05.349Z,96.65
2023-02-16T06:49:27.779Z,96.52
2023-02-16T06:51:07.067Z,96.43
2023-02-16T06:52:47.165Z,96.42
2023-02-16T06:54:27.653Z,96.33
2023-02-16T06:56:08.133Z,96.29
2023-02-16T06:57:48.724Z,96.2
2023-02-16T06:59:29.102Z,96.1
2023-02-16T07:01:09.613Z,96.09
2023-02-16T07:02:49.978Z,96.04
2023-02-16T07:04:30.417Z,96.1
2023-02-16T07:06:10.955Z,96.06
2023-02-16T07:07:51.385Z,96.12
2023-02-16T07:09:31.927Z,96.1
2023-02-16T07:11:12.233Z,96.1
2023-02-16T07:12:52.572Z,96.13
2023-02-16T07:14:33.007Z,96.09
2023-02-16T07:16:13.535Z,96.1
2023-02-16T07:17:54.037Z,96.03
2023-02-16T07:19:34.469Z,95.87
2023-02-16T07:21:14.874Z,95.72
2023-02-16T07:22:55.282Z,95.72
2023-02-16T07:24:35.782Z,95.68
2023-02-16T07:26:16.239Z,95.65
2023-02-16T07:27:56.731Z,95.65
2023-02-16T07:29:37.204Z,95.58
2023-02-16T07:31:17.627Z,95.46
2023-02-16T07:32:58.029Z,95.38
2023-02-16T07:34:38.513Z,95.4
2023-02-16T07:36:19.042Z,95.38
2023-02-16T07:37:59.514Z,95.29
2023-02-16T07:39:39.683Z,95.31
2023-02-16T07:41:20.063Z,95.42
2023-02-16T07:43:00.535Z,95.32
2023-02-16T07:44:40.925Z,95.34
2023-02-16T07:46:21.237Z,95.34
2023-02-16T07:48:01.641Z,95.35
2023-02-16T07:49:42.104Z,95.17
2023-02-16T07:51:22.691Z,95.18
2023-02-16T07:53:03.165Z,95.26
2023-02-16T07:54:43.591Z,95.2
2023-02-16T07:56:24.204Z,95.03
2023-02-16T07:58:04.684Z,95.06
2023-02-16T07:59:45.143Z,95.03
2023-02-16T08:01:25.626Z,94.98
2023-02-16T08:03:06.349Z,94.87
2023-02-16T08:04:46.605Z,94.77
2023-02-16T08:06:33.113Z,94.68
2023-02-16T08:08:13.522Z,94.48
2023-02-16T08:09:53.950Z,94.45
2023-02-16T08:11:34.433Z,94.54
2023-02-16T08:13:14.893Z,94.51
2023-02-16T08:14:55.299Z,94.47
2023-02-16T08:16:35.750Z,94.47
2023-02-16T08:18:16.188Z,94.41
2023-02-16T08:19:56.678Z,94.42
2023-02-16T08:21:37.053Z,94.22
2023-02-16T08:23:17.523Z,94.18
2023-02-16T08:24:58.029Z,94.08
2023-02-16T08:26:38.504Z,94.14
2023-02-16T08:28:18.913Z,94.02
2023-02-16T08:29:59.477Z,94.07
2023-02-16T08:31:39.985Z,94.16
2023-02-16T08:33:20.404Z,93.81
2023-02-16T08:35:00.817Z,93.66
2023-02-16T08:36:41.344Z,93.88
2023-02-16T08:38:21.821Z,93.6
2023-02-16T08:40:02.325Z,93.21
2023-02-16T08:41:42.716Z,93.58
2023-02-16T08:43:23.168Z,93.41
2023-02-16T08:45:03.652Z,93.62
2023-02-16T08:46:44.453Z,93.7
2023-02-16T08:48:24.612Z,93.31
2023-02-16T08:50:05.005Z,92.76
2023-02-16T08:51:45.489Z,92.84
2023-02-16T08:55:06.490Z,92
2023-02-16T08:56:46.994Z,92.55
2023-02-16T08:58:27.311Z,92.25
2023-02-16T09:00:07.811Z,91.87
2023-02-16T09:01:48.274Z,91.03
2023-02-16T09:03:28.721Z,91.11
2023-02-16T09:05:09.144Z,91.02
2023-02-16T09:06:49.924Z,90.76
2023-02-16T09:08:30.089Z,90.75
2023-02-16T09:10:10.484Z,91.05
2023-02-16T09:11:50.963Z,90.73
2023-02-16T09:13:31.337Z,90.43
2023-02-16T09:15:11.791Z,90.3
2023-02-16T09:16:52.358Z,90.06
2023-02-16T09:18:32.729Z,90.5
2023-02-16T09:20:13.243Z,90.22
2023-02-16T09:21:53.672Z,90.27
2023-02-16T09:23:34.178Z,89.68
2023-02-16T09:25:14.641Z,89.15
2023-02-16T09:26:55.061Z,89.31
2023-02-16T09:28:35.563Z,89.69
2023-02-16T09:30:16.103Z,89.54
2023-02-16T09:31:56.433Z,89.26
2023-02-16T09:33:36.811Z,89.52
2023-02-16T09:35:17.252Z,89.29
2023-02-16T09:36:57.846Z,89.23
2023-02-16T09:38:38.324Z,89.21
2023-02-16T09:40:18.812Z,89.08
2023-02-16T09:41:59.275Z,89
2023-02-16T09:43:39.797Z,89.21
2023-02-16T09:45:20.240Z,89.27
2023-02-16T09:47:00.629Z,89.27
2023-02-16T09:48:41.138Z,89.03
2023-02-16T09:50:38.261Z,88.63
2023-02-16T09:52:02.075Z,88.66
2023-02-16T09:53:42.576Z,88.75
2023-02-16T09:55:22.987Z,88.17
2023-02-16T09:57:03.498Z,87.98
2023-02-16T09:58:43.900Z,88.12
2023-02-16T10:00:24.334Z,88.13
2023-02-16T10:02:04.820Z,87.99
2023-02-16T10:03:45.333Z,87.7
2023-02-16T10:05:25.889Z,87.57
2023-02-16T10:07:06.248Z,87.24
2023-02-16T10:08:46.634Z,86.92
2023-02-16T10:10:27.135Z,86.82
2023-02-16T10:12:07.586Z,87.13
2023-02-16T10:13:48.086Z,87.05
2023-02-16T10:15:28.586Z,86.83
2023-02-16T10:17:09.001Z,86.4
2023-02-16T10:18:49.566Z,86.48
2023-02-16T10:20:30.036Z,86.67
2023-02-16T10:22:10.526Z,86.72
2023-02-16T10:23:51.062Z,86.54
2023-02-16T10:25:31.477Z,85.74
2023-02-16T10:27:11.970Z,85.32
2023-02-16T10:28:52.408Z,85.04
2023-02-16T10:30:32.887Z,83.47
2023-02-16T10:32:13.368Z,82.27
2023-02-16T10:33:53.832Z,81.34
2023-02-16T10:35:34.368Z,80.48
2023-02-16T10:37:15.080Z,79.62
2023-02-16T10:38:55.318Z,78.7
2023-02-16T10:40:35.742Z,78.81
2023-02-16T10:42:16.174Z,78.83
2023-02-16T10:43:56.609Z,78.99
2023-02-16T10:45:37.069Z,79.31
2023-02-16T10:47:17.601Z,79.86
2023-02-16T10:48:58.075Z,79.58
2023-02-16T10:50:38.543Z,79.68
2023-02-16T10:52:18.986Z,80.02
2023-02-16T10:53:59.404Z,80.52
2023-02-16T10:55:39.870Z,80.66
2023-02-16T10:57:20.272Z,80.8
2023-02-16T10:59:00.670Z,80.35
2023-02-16T11:00:41.193Z,81.64
2023-02-16T11:02:21.635Z,81.19
2023-02-16T11:04:02.087Z,81.18
2023-02-16T11:05:42.544Z,81.67
2023-02-16T11:07:22.949Z,81.25
2023-02-16T11:09:03.407Z,80.6
2023-02-16T11:10:43.867Z,80.82
2023-02-16T11:12:24.234Z,80.97
2023-02-16T11:14:04.582Z,81.33
2023-02-16T11:15:45.077Z,80.24
2023-02-16T11:17:25.526Z,79.76
2023-02-16T11:19:05.931Z,79.47
2023-02-16T11:20:46.464Z,79.41
2023-02-16T11:22:26.973Z,79.44
2023-02-16T11:24:07.463Z,79.41
2023-02-16T11:25:47.999Z,79.23
2023-02-16T11:27:28.478Z,79.19
2023-02-16T11:29:08.897Z,78.75
2023-02-16T11:30:49.521Z,77.81
2023-02-16T11:32:29.827Z,78.12
2023-02-16T11:34:10.370Z,77.24
2023-02-16T11:35:50.902Z,76.28
2023-02-16T11:37:31.368Z,76.67
2023-02-16T11:39:11.850Z,75.57
2023-02-16T11:40:52.361Z,74.89
2023-02-16T11:42:32.796Z,74.71
2023-02-16T11:44:13.209Z,74.04
2023-02-16T11:45:53.670Z,73.7
2023-02-16T11:47:34.244Z,72.48
2023-02-16T11:49:14.618Z,73.16
2023-02-16T11:50:55.171Z,72.91
2023-02-16T11:52:35.657Z,71.72
2023-02-16T11:54:15.999Z,71.09
2023-02-16T11:55:56.456Z,70.41
2023-02-16T11:57:37.005Z,70.13
2023-02-16T11:59:17.415Z,71.17
2023-02-16T12:00:57.845Z,71.69
2023-02-16T12:02:38.413Z,72.78
2023-02-16T12:04:18.873Z,73.33
2023-02-16T12:05:59.430Z,74.31
2023-02-16T12:07:39.918Z,73.65
2023-02-16T12:09:20.289Z,75.09
2023-02-16T12:11:00.682Z,75.21
2023-02-16T12:12:41.082Z,75.78
2023-02-16T12:14:21.617Z,76.39
2023-02-16T12:16:02.332Z,75.62
2023-02-16T12:17:42.471Z,75.08
2023-02-16T12:19:22.889Z,73.75
2023-02-16T12:21:03.388Z,73.95
2023-02-16T12:22:43.850Z,74.26
2023-02-16T12:24:24.332Z,74.46
2023-02-16T12:26:05.058Z,73.02
2023-02-16T12:27:45.216Z,73.26
2023-02-16T12:29:25.636Z,71.34
2023-02-16T12:31:06.213Z,70.72
2023-02-16T12:32:46.686Z,71.44
2023-02-16T12:34:27.038Z,70.86
2023-02-16T12:36:07.519Z,70.39
2023-02-16T12:37:47.898Z,70.78
2023-02-16T12:39:28.363Z,69.87
2023-02-16T12:41:08.803Z,70.07
2023-02-16T12:42:49.193Z,70.56
2023-02-16T12:44:29.663Z,71.01
2023-02-16T12:46:10.137Z,72.13
2023-02-16T12:47:50.599Z,71.92
2023-02-16T12:49:30.953Z,72.76
2023-02-16T12:51:11.336Z,73.03
2023-02-16T12:52:51.935Z,73.24
2023-02-16T12:54:32.318Z,73.77
2023-02-16T12:56:12.775Z,74.15
2023-02-16T12:57:53.243Z,74.68
2023-02-16T12:59:33.720Z,74.9
2023-02-16T13:01:14.230Z,75.75
2023-02-16T13:02:54.585Z,75.93
2023-02-16T13:04:35.034Z,75.33
2023-02-16T13:06:15.552Z,75.39
2023-02-16T13:07:56.030Z,75.57
2023-02-16T13:09:36.593Z,74.8
2023-02-16T13:11:17.032Z,75.81
2023-02-16T13:12:57.599Z,75.15
2023-02-16T13:14:38.061Z,75.61
2023-02-16T13:16:29.579Z,75.66
2023-02-16T13:17:59.082Z,75.51
2023-02-16T13:19:39.547Z,75.78
2023-02-16T13:21:20.027Z,76.32
2023-02-16T13:23:00.561Z,76.02
2023-02-16T13:24:41.067Z,76.58
2023-02-16T13:26:21.635Z,75.96
2023-02-16T13:28:02.154Z,76.03
2023-02-16T13:29:42.649Z,75.6
2023-02-16T13:31:23.138Z,76
2023-02-16T13:33:03.538Z,75.33
2023-02-16T13:34:44.033Z,74.72
2023-02-16T13:36:24.505Z,75.28
2023-02-16T13:38:05.139Z,75.24
2023-02-16T13:39:45.622Z,74.68
2023-02-16T13:41:26.011Z,75.15
2023-02-16T13:43:06.529Z,74.92
2023-02-16T13:44:46.944Z,74.81
2023-02-16T13:46:27.451Z,75.32
2023-02-16T13:48:07.864Z,74.65
2023-02-16T13:49:48.382Z,75.02
2023-02-16T13:51:28.827Z,75.13
2023-02-16T13:53:09.338Z,75.73
2023-02-16T13:54:49.964Z,75.23
2023-02-16T13:56:30.388Z,75.79
2023-02-16T13:58:10.793Z,76.02
2023-02-16T13:59:51.239Z,76.24
2023-02-16T14:01:31.897Z,76.31
2023-02-16T14:03:12.482Z,77
2023-02-16T14:04:52.629Z,76.79
2023-02-16T14:06:32.951Z,76.85
2023-02-16T14:08:13.323Z,77.11
2023-02-16T14:09:53.760Z,77.16
2023-02-16T14:11:34.178Z,77.12
2023-02-16T14:13:14.657Z,77.36
2023-02-16T14:14:55.093Z,76.95
2023-02-16T14:16:35.601Z,77.43
2023-02-16T14:18:16.052Z,77.85
2023-02-16T14:19:56.574Z,78.08
2023-02-16T14:21:37.024Z,77.7
2023-02-16T14:23:17.492Z,77.29
2023-02-16T14:24:57.970Z,77.11
2023-02-16T14:26:38.416Z,77.24
2023-02-16T14:28:18.890Z,77.57
2023-02-16T14:29:59.349Z,77.53
2023-02-16T14:31:39.839Z,77.01
2023-02-16T14:33:20.026Z,77.39
2023-02-16T14:35:00.469Z,77.56
2023-02-16T14:36:40.847Z,77.31
2023-02-16T14:38:21.191Z,77.4
2023-02-16T14:40:08.188Z,77.92
2023-02-16T14:41:41.834Z,77.73
2023-02-16T14:43:22.166Z,77.86
2023-02-16T14:45:02.579Z,77.39
2023-02-16T14:46:43.161Z,77.84
2023-02-16T14:48:23.385Z,78.26
2023-02-16T14:50:03.975Z,78.32
2023-02-16T14:51:44.353Z,78.61
2023-02-16T14:53:24.828Z,79.08
2023-02-16T14:55:05.418Z,78.89
2023-02-16T14:56:45.924Z,79.53
2023-02-16T14:58:26.383Z,79.57
2023-02-16T15:00:06.876Z,79.54
2023-02-16T15:01:47.426Z,79.92
2023-02-16T15:03:27.891Z,80.27
2023-02-16T15:05:08.445Z,80.21
2023-02-16T15:06:48.934Z,80.32
2023-02-16T15:08:29.395Z,79.94
2023-02-16T15:10:09.740Z,80.46
2023-02-16T15:11:50.176Z,80.21
2023-02-16T15:13:30.509Z,80.34
2023-02-16T15:15:10.923Z,80.55
2023-02-16T15:16:51.330Z,80.78
2023-02-16T15:18:31.783Z,80.9
2023-02-16T15:20:12.104Z,80.98
2023-02-16T15:21:52.676Z,81.22
2023-02-16T15:23:33.112Z,81.06
2023-02-16T15:25:13.635Z,81.35
2023-02-16T15:26:54.139Z,81.61
2023-02-16T15:28:34.620Z,81.63
2023-02-16T15:30:15.155Z,81.73
2023-02-16T15:31:55.802Z,82
2023-02-16T15:33:36.063Z,82.05
2023-02-16T15:35:16.449Z,81.86
2023-02-16T15:36:56.927Z,82.08
2023-02-16T15:38:37.436Z,82.34
2023-02-16T15:40:26.368Z,82.45
2023-02-16T15:41:58.386Z,82.44
2023-02-16T15:43:38.798Z,82.4
2023-02-16T15:45:19.418Z,82.23
2023-02-16T15:46:59.781Z,82.12
2023-02-16T15:48:40.222Z,82.08
2023-02-16T15:50:20.643Z,82.06
2023-02-16T15:52:01.060Z,82.36
2023-02-16T15:53:41.489Z,82.42
2023-02-16T15:55:21.916Z,82.05
2023-02-16T15:57:02.534Z,82.33
2023-02-16T15:58:42.894Z,82.34
2023-02-16T16:00:23.413Z,82.18
2023-02-16T16:02:03.912Z,82.56
2023-02-16T16:03:44.348Z,82.71
2023-02-16T16:05:24.876Z,82.78
2023-02-16T16:07:05.282Z,82.93
2023-02-16T16:08:45.752Z,82.73
2023-02-16T16:10:26.194Z,82.95
2023-02-16T16:12:06.693Z,83.05
2023-02-16T16:13:47.158Z,83.18
2023-02-16T16:15:27.605Z,83.23
2023-02-16T16:17:08.041Z,83.34
2023-02-16T16:18:48.500Z,83.54
2023-02-16T16:20:29.008Z,83.38
2023-02-16T16:22:09.422Z,83.44
2023-02-16T16:23:49.794Z,83.55
2023-02-16T16:25:30.091Z,83.61
2023-02-16T16:27:10.388Z,83.76
2023-02-16T16:28:50.802Z,83.82
2023-02-16T16:30:31.375Z,84.06
2023-02-16T16:32:11.649Z,84.11
2023-02-16T16:33:52.185Z,84.08
2023-02-16T16:35:32.708Z,84.24
2023-02-16T16:37:13.132Z,84.26
2023-02-16T16:38:53.549Z,84.27
2023-02-16T16:40:34.053Z,84.54
2023-02-16T16:42:14.590Z,84.64
2023-02-16T16:43:55.124Z,84.72
2023-02-16T16:45:35.652Z,84.87
2023-02-16T16:47:16.084Z,85.02
2023-02-16T16:48:56.556Z,84.99
2023-02-16T16:50:39.393Z,85.11
2023-02-16T16:52:17.359Z,85.23
2023-02-16T16:53:57.864Z,85.48
2023-02-16T16:55:38.405Z,85.54
2023-02-16T16:57:18.749Z,85.58
2023-02-16T16:58:59.205Z,85.72
2023-02-16T17:00:39.656Z,85.8
2023-02-16T17:02:20.073Z,85.9
2023-02-16T17:04:00.835Z,85.85
2023-02-16T17:05:41.137Z,85.91
2023-02-16T17:07:21.504Z,86.06
2023-02-16T17:09:01.971Z,86.26
2023-02-16T17:10:42.388Z,86.29
2023-02-16T17:12:22.715Z,86.48
2023-02-16T17:14:03.015Z,86.56
2023-02-16T17:15:43.336Z,86.49
2023-02-16T17:17:23.662Z,86.6
2023-02-16T17:19:03.974Z,86.63
2023-02-16T17:20:44.282Z,86.72
2023-02-16T17:22:24.581Z,86.79
2023-02-16T17:24:05.034Z,86.87
2023-02-16T17:27:25.996Z,86.99
2023-02-16T17:29:06.551Z,86.97
2023-02-16T17:30:47.071Z,87.07
2023-02-16T17:32:27.405Z,87.11
2023-02-16T17:34:07.854Z,87.21
2023-02-16T17:35:48.344Z,87.22
2023-02-16T17:37:28.790Z,87.2
2023-02-16T17:39:09.346Z,87.29
2023-02-16T17:40:49.658Z,87.21
2023-02-16T17:42:30.108Z,87.21
2023-02-16T17:44:10.569Z,87.14
2023-02-16T17:45:50.935Z,87.14
2023-02-16T17:47:31.177Z,87.19
2023-02-16T17:49:11.540Z,87.38
2023-02-16T17:50:51.941Z,87.43
2023-02-16T17:52:32.415Z,87.43
2023-02-16T17:54:12.934Z,87.52
2023-02-16T17:55:53.265Z,87.51
2023-02-16T17:57:33.749Z,87.54
2023-02-16T17:59:14.233Z,87.53
2023-02-16T18:00:54.727Z,87.49
2023-02-16T18:02:35.154Z,87.38
2023-02-16T18:04:15.691Z,87.39
2023-02-16T18:05:56.149Z,87.42
2023-02-16T18:07:36.631Z,87.45
2023-02-16T18:09:17.085Z,87.49
2023-02-16T18:10:57.455Z,87.63
2023-02-16T18:12:37.821Z,87.72
2023-02-16T18:14:18.210Z,87.85
2023-02-16T18:15:58.682Z,87.91
2023-02-16T18:17:39.423Z,88.13
2023-02-16T18:19:19.759Z,88.31
2023-02-16T18:21:00.325Z,88.51
2023-02-16T18:22:40.755Z,88.53
2023-02-16T18:24:21.240Z,88.68
2023-02-16T18:26:01.778Z,88.84
2023-02-16T18:27:42.218Z,88.9
2023-02-16T18:29:22.684Z,89.06
2023-02-16T18:31:03.229Z,89.14
2023-02-16T18:32:43.417Z,89.26
2023-02-16T18:34:25.988Z,89.33
2023-02-16T18:36:04.524Z,89.48
2023-02-16T18:37:44.509Z,89.46
2023-02-16T18:39:24.933Z,89.36
2023-02-16T18:41:05.722Z,89.5
2023-02-16T18:42:45.835Z,89.45
2023-02-16T18:44:26.356Z,89.6
2023-02-16T18:46:07.362Z,89.53
2023-02-16T18:47:47.413Z,89.71
2023-02-16T18:49:27.782Z,89.71
2023-02-16T18:51:08.319Z,89.71
2023-02-16T18:52:48.824Z,89.76
2023-02-16T18:54:29.360Z,89.71
2023-02-16T18:56:09.753Z,89.83
2023-02-16T18:57:50.038Z,89.83
2023-02-16T18:59:30.372Z,89.78
2023-02-16T19:01:10.932Z,89.83
2023-02-16T19:02:51.291Z,89.86
2023-02-16T19:04:31.907Z,89.85
2023-02-16T19:06:12.276Z,89.79
2023-02-16T19:07:52.774Z,89.7
2023-02-16T19:09:33.209Z,89.68
2023-02-16T19:11:13.671Z,89.64
2023-02-16T19:12:54.167Z,89.74
2023-02-16T19:14:34.596Z,89.7
2023-02-16T19:16:15.168Z,89.76
2023-02-16T19:17:55.572Z,89.76
2023-02-16T19:19:36.000Z,89.77
2023-02-16T19:21:16.268Z,89.73
2023-02-16T19:22:56.548Z,89.73
2023-02-16T19:24:36.901Z,89.75
2023-02-16T19:26:17.310Z,89.72
2023-02-16T19:27:57.752Z,89.74
2023-02-16T19:29:38.188Z,89.74
2023-02-16T19:31:18.788Z,89.7
2023-02-16T19:32:59.158Z,89.75
2023-02-16T19:34:39.649Z,89.72
2023-02-16T19:36:20.119Z,89.7
2023-02-16T19:38:00.642Z,89.68
2023-02-16T19:39:41.068Z,89.62
2023-02-16T19:41:21.558Z,89.54
2023-02-16T19:43:01.949Z,89.51
2023-02-16T19:44:42.420Z,89.62
2023-02-16T19:46:22.862Z,89.59
2023-02-16T19:48:03.315Z,89.59
2023-02-16T19:49:43.641Z,89.66
2023-02-16T19:51:23.980Z,89.72
2023-02-16T19:53:04.459Z,89.78
2023-02-16T19:54:44.830Z,89.85
2023-02-16T19:56:25.296Z,89.79
2023-02-16T19:58:05.815Z,89.76
2023-02-16T19:59:46.256Z,89.71
2023-02-16T20:01:26.851Z,89.7
2023-02-16T20:03:07.261Z,89.69
2023-02-16T20:04:47.835Z,89.47
2023-02-16T20:06:28.255Z,89.4
2023-02-16T20:08:08.830Z,89.3
2023-02-16T20:09:49.285Z,89.23
2023-02-16T20:11:29.745Z,89.24
2023-02-16T20:13:10.196Z,89.2
2023-02-16T20:14:50.671Z,89.19
2023-02-16T20:16:31.262Z,89.19
2023-02-16T20:18:11.640Z,89.09
2023-02-16T20:19:52.132Z,89.09
2023-02-16T20:21:32.636Z,89.11
2023-02-16T20:23:13.201Z,89.05
2023-02-16T20:24:53.718Z,89.09
2023-02-16T20:26:34.564Z,88.94
2023-02-16T20:28:14.581Z,89.09
2023-02-16T20:29:55.195Z,89.04
2023-02-16T20:31:35.599Z,88.97
2023-02-16T20:33:15.695Z,88.82
2023-02-16T20:34:56.152Z,88.94
2023-02-16T20:36:36.643Z,89.07
2023-02-16T20:38:17.156Z,89.16
2023-02-16T20:39:57.658Z,89.24
2023-02-16T20:41:38.067Z,89.34
2023-02-16T20:43:18.533Z,89.46
2023-02-16T20:44:58.970Z,89.52
2023-02-16T20:46:39.552Z,89.46
2023-02-16T20:48:20.067Z,89.4
2023-02-16T20:50:00.432Z,89.21
2023-02-16T20:51:40.993Z,89.29
2023-02-16T20:53:21.405Z,89.51
2023-02-16T20:55:01.706Z,89.47
2023-02-16T20:56:42.190Z,89.48
2023-02-16T20:58:22.520Z,89.45
2023-02-16T21:00:02.955Z,89.32
2023-02-16T21:01:43.678Z,89.33
2023-02-16T21:03:23.842Z,89.33
2023-02-16T21:05:04.353Z,89.46
2023-02-16T21:06:44.744Z,89.38
2023-02-16T21:08:25.221Z,89.5
2023-02-16T21:10:05.699Z,89.46
2023-02-16T21:11:46.149Z,89.41
2023-02-16T21:13:26.719Z,89.45
2023-02-16T21:15:07.133Z,89.17
2023-02-16T21:16:47.573Z,89.25
2023-02-16T21:18:27.897Z,89.21
2023-02-16T21:20:08.214Z,89.08
2023-02-16T21:21:48.587Z,89.06
2023-02-16T21:23:29.027Z,89.04
2023-02-16T21:25:09.473Z,89.16
2023-02-16T21:26:49.903Z,89.26
2023-02-16T21:28:30.459Z,89.25
2023-02-16T21:30:11.010Z,89.3
2023-02-16T21:31:51.544Z,89.61
2023-02-16T21:33:31.851Z,89.95
2023-02-16T21:35:12.293Z,90
2023-02-16T21:36:52.832Z,90.12
2023-02-16T21:38:33.297Z,90.23
2023-02-16T21:40:13.756Z,90.41
2023-02-16T21:41:54.117Z,90.75
2023-02-16T21:43:34.728Z,90.8
2023-02-16T21:45:14.888Z,90.64
2023-02-16T21:46:55.255Z,90.79
2023-02-16T21:48:35.689Z,90.72